createdAt,value
2023-04-07T00:00:18.303Z,9.82
2023-04-07T00:02:27.382Z,10.02
2023-04-07T00:04:36.374Z,9.88
2023-04-07T00:06:45.500Z,10.50
2023-04-07T00:08:53.385Z,11.65
2023-04-07T00:11:04.346Z,10.40
2023-04-07T00:13:12.207Z,9.60
2023-04-07T00:15:20.472Z,9.05
2023-04-07T00:17:28.948Z,9.77
2023-04-07T00:19:36.839Z,11.45
2023-04-07T00:21:44.783Z,13.68
2023-04-07T00:23:52.963Z,9.95
2023-04-07T00:26:03.677Z,10.90
2023-04-07T00:28:11.635Z,10.85
2023-04-07T00:30:19.883Z,11.50
2023-04-07T00:32:28.222Z,9.50
2023-04-07T00:34:36.326Z,11.10
2023-04-07T00:36:45.166Z,12.80
2023-04-07T00:38:53.045Z,12.27
2023-04-07T00:41:04.237Z,11.50
2023-04-07T00:43:12.505Z,12.60
2023-04-07T00:45:20.610Z,10.50
2023-04-07T00:47:28.632Z,11.55
2023-04-07T00:49:36.578Z,9.50
2023-04-07T00:51:44.936Z,9.75
2023-04-07T00:53:53.226Z,14.38
2023-04-07T00:56:04.616Z,9.68
2023-04-07T00:58:12.652Z,11.10
2023-04-07T01:00:23.415Z,10.43
2023-04-07T01:02:37.124Z,10.32
2023-04-07T01:04:53.582Z,12.07
2023-04-07T01:07:08.493Z,12.73
2023-04-07T01:09:26.795Z,10.50
2023-04-07T01:11:46.511Z,9.85
2023-04-07T01:14:01.986Z,13.40
2023-04-07T01:16:20.461Z,11.05
2023-04-07T01:18:35.927Z,11.68
2023-04-07T01:20:47.162Z,10.93
2023-04-07T01:22:59.000Z,13.93
2023-04-07T01:25:29.323Z,14.48
2023-04-07T01:27:52.301Z,12.68
2023-04-07T01:30:06.458Z,11.27
2023-04-07T01:32:15.808Z,13.60
2023-04-07T01:34:25.607Z,12.00
2023-04-07T01:36:36.373Z,11.93
2023-04-07T01:38:46.383Z,11.75
2023-04-07T01:40:56.075Z,12.07
2023-04-07T01:43:05.581Z,13.00
2023-04-07T01:45:18.068Z,11.30
2023-04-07T01:47:27.939Z,13.30
2023-04-07T01:49:38.597Z,10.90
2023-04-07T01:51:50.475Z,11.75
2023-04-07T01:53:59.021Z,12.93
2023-04-07T01:56:07.350Z,12.35
2023-04-07T01:58:18.129Z,13.60
2023-04-07T02:00:29.002Z,12.82
2023-04-07T02:02:43.861Z,13.63
2023-04-07T02:04:57.786Z,14.30
2023-04-07T02:07:13.022Z,14.60
2023-04-07T02:09:30.102Z,12.50
2023-04-07T02:11:40.622Z,12.07
2023-04-07T02:13:49.450Z,11.45
2023-04-07T02:16:03.058Z,15.65
2023-04-07T02:18:13.517Z,12.77
2023-04-07T02:20:23.313Z,13.32
2023-04-07T02:22:33.045Z,12.50
2023-04-07T02:24:44.754Z,14.27
2023-04-07T02:26:52.942Z,12.15
2023-04-07T02:29:01.857Z,13.40
2023-04-07T02:31:13.970Z,11.93
2023-04-07T02:33:22.008Z,11.45
2023-04-07T02:35:29.927Z,12.60
2023-04-07T02:37:37.872Z,12.00
2023-04-07T02:39:45.721Z,14.10
2023-04-07T02:41:55.478Z,11.25
2023-04-07T02:44:03.408Z,11.45
2023-04-07T02:46:15.401Z,13.25
2023-04-07T02:48:24.482Z,11.68
2023-04-07T02:50:32.731Z,11.38
2023-04-07T02:52:40.716Z,12.95
2023-04-07T02:54:53.540Z,12.77
2023-04-07T02:57:12.091Z,12.80
2023-04-07T02:59:20.228Z,12.32
2023-04-07T03:01:31.387Z,11.02
2023-04-07T03:03:39.687Z,13.20
2023-04-07T03:05:58.332Z,11.75
2023-04-07T03:08:06.481Z,12.52
2023-04-07T03:10:14.378Z,12.40
2023-04-07T03:12:23.340Z,13.90
2023-04-07T03:14:31.343Z,14.38
2023-04-07T03:16:41.953Z,15.90
2023-04-07T03:18:52.891Z,12.77
2023-04-07T03:21:02.489Z,13.10
2023-04-07T03:23:12.221Z,12.77
2023-04-07T03:25:20.350Z,12.00
2023-04-07T03:27:32.007Z,15.10
2023-04-07T03:29:40.201Z,15.07
2023-04-07T03:31:56.131Z,13.50
2023-04-07T03:34:06.255Z,12.88
2023-04-07T03:36:14.215Z,14.82
2023-04-07T03:38:22.669Z,13.25
2023-04-07T03:40:36.151Z,14.05
2023-04-07T03:42:44.042Z,15.75
2023-04-07T03:44:54.714Z,13.57
2023-04-07T03:47:05.467Z,15.93
2023-04-07T03:49:14.856Z,13.45
2023-04-07T03:51:24.101Z,14.63
2023-04-07T03:53:36.562Z,13.95
2023-04-07T03:56:04.432Z,11.73
2023-04-07T03:58:26.153Z,16.58
2023-04-07T04:00:34.791Z,14.00
2023-04-07T04:02:56.095Z,13.40
2023-04-07T04:05:04.103Z,14.55
2023-04-07T04:07:12.840Z,12.18
2023-04-07T04:09:26.370Z,13.07
2023-04-07T04:11:34.598Z,16.73
2023-04-07T04:13:45.516Z,12.98
2023-04-07T04:15:53.525Z,12.98
2023-04-07T04:18:04.636Z,13.10
2023-04-07T04:20:14.604Z,14.95
2023-04-07T04:22:26.865Z,13.65
2023-04-07T04:24:38.246Z,14.88
2023-04-07T04:26:46.418Z,16.80
2023-04-07T04:28:58.778Z,15.90
2023-04-07T04:31:06.916Z,15.70
2023-04-07T04:33:22.778Z,13.80
2023-04-07T04:35:40.742Z,15.02
2023-04-07T04:37:52.200Z,13.25
2023-04-07T04:40:00.779Z,15.10
2023-04-07T04:42:09.961Z,17.65
2023-04-07T04:44:17.947Z,14.18
2023-04-07T04:46:26.580Z,14.63
2023-04-07T04:48:38.263Z,14.70
2023-04-07T04:50:47.909Z,14.02
2023-04-07T04:52:56.840Z,17.15
2023-04-07T04:55:05.693Z,15.07
2023-04-07T04:57:14.152Z,15.50
2023-04-07T04:59:22.849Z,13.60
2023-04-07T05:01:51.484Z,15.88
2023-04-07T05:04:03.043Z,15.00
2023-04-07T05:06:12.931Z,17.65
2023-04-07T05:08:23.367Z,15.77
2023-04-07T05:10:31.420Z,15.02
2023-04-07T05:12:41.746Z,16.73
2023-04-07T05:14:49.743Z,16.50
2023-04-07T05:16:57.626Z,14.63
2023-04-07T05:19:11.799Z,14.93
2023-04-07T05:21:20.450Z,16.40
2023-04-07T05:23:28.785Z,13.93
2023-04-07T05:25:37.987Z,16.17
2023-04-07T05:27:47.134Z,14.52
2023-04-07T05:29:57.229Z,16.02
2023-04-07T05:32:12.529Z,16.17
2023-04-07T05:34:23.297Z,14.95
2023-04-07T05:36:36.752Z,16.02
2023-04-07T05:38:45.061Z,15.57
2023-04-07T05:40:56.175Z,15.38
2023-04-07T05:43:12.592Z,15.07
2023-04-07T05:45:20.822Z,20.10
2023-04-07T05:47:31.204Z,16.05
2023-04-07T05:49:46.143Z,15.45
2023-04-07T05:51:54.873Z,14.07
2023-04-07T05:54:06.606Z,14.75
2023-04-07T05:56:14.489Z,16.45
2023-04-07T05:58:26.112Z,14.23
2023-04-07T06:00:36.052Z,14.60
2023-04-07T06:02:49.922Z,14.00
2023-04-07T06:05:09.168Z,15.38
2023-04-07T06:07:19.427Z,14.23
2023-04-07T06:09:28.002Z,14.63
2023-04-07T06:11:35.918Z,16.55
2023-04-07T06:13:43.879Z,15.95
2023-04-07T06:15:51.848Z,13.82
2023-04-07T06:17:59.803Z,15.75
2023-04-07T06:20:11.891Z,13.27
2023-04-07T06:22:22.534Z,14.60
2023-04-07T06:24:30.691Z,15.38
2023-04-07T06:26:38.770Z,14.65
2023-04-07T06:28:47.006Z,14.48
2023-04-07T06:30:57.559Z,14.00
2023-04-07T06:33:07.135Z,14.85
2023-04-07T06:35:17.942Z,15.15
2023-04-07T06:37:27.076Z,15.00
2023-04-07T06:39:35.506Z,13.40
2023-04-07T06:41:43.860Z,16.48
2023-04-07T06:43:52.982Z,14.60
2023-04-07T06:46:00.898Z,14.85
2023-04-07T06:48:11.229Z,15.27
2023-04-07T06:50:22.434Z,14.43
2023-04-07T06:52:30.270Z,15.45
2023-04-07T06:54:38.203Z,15.00
2023-04-07T06:56:47.663Z,15.20
2023-04-07T06:58:55.947Z,15.52
2023-04-07T07:01:04.350Z,17.33
2023-04-07T07:03:12.751Z,16.30
2023-04-07T07:05:23.641Z,13.93
2023-04-07T07:07:31.526Z,18.45
2023-04-07T07:09:39.522Z,15.55
2023-04-07T07:11:47.922Z,13.95
2023-04-07T07:13:55.943Z,14.73
2023-04-07T07:16:03.894Z,13.00
2023-04-07T07:18:11.850Z,15.07
2023-04-07T07:20:20.068Z,13.10
2023-04-07T07:22:30.681Z,13.32
2023-04-07T07:24:38.676Z,14.90
2023-04-07T07:26:46.824Z,13.98
2023-04-07T07:28:54.792Z,14.95
2023-04-07T07:31:04.639Z,13.20
2023-04-07T07:33:12.673Z,14.05
2023-04-07T07:35:20.465Z,12.80
2023-04-07T07:37:31.057Z,12.82
2023-04-07T07:39:39.245Z,12.55
2023-04-07T07:41:47.105Z,11.48
2023-04-07T07:43:55.056Z,13.05
2023-04-07T07:46:03.168Z,14.70
2023-04-07T07:48:11.639Z,10.98
2023-04-07T07:50:19.598Z,13.25
2023-04-07T07:52:32.700Z,12.98
2023-04-07T07:54:40.713Z,12.90
2023-04-07T07:56:48.872Z,13.25
2023-04-07T07:58:58.302Z,12.35
2023-04-07T08:01:06.528Z,11.98
2023-04-07T08:03:14.604Z,11.15
2023-04-07T08:05:22.800Z,9.75
2023-04-07T08:07:36.277Z,9.18
2023-04-07T08:09:44.162Z,11.00
2023-04-07T08:11:52.678Z,10.98
2023-04-07T08:14:00.624Z,10.68
2023-04-07T08:16:09.509Z,9.23
2023-04-07T08:18:17.488Z,10.27
2023-04-07T08:20:25.805Z,10.20
2023-04-07T08:22:36.306Z,9.30
2023-04-07T08:24:44.717Z,9.43
2023-04-07T08:26:52.708Z,7.88
2023-04-07T08:29:01.836Z,8.05
2023-04-07T08:31:10.510Z,8.15
2023-04-07T08:33:18.574Z,9.38
2023-04-07T08:35:26.577Z,7.90
2023-04-07T08:37:38.546Z,8.52
2023-04-07T08:39:47.480Z,6.18
2023-04-07T08:41:57.941Z,7.50
2023-04-07T08:44:06.820Z,7.47
2023-04-07T08:46:15.583Z,7.82
2023-04-07T08:48:27.503Z,7.63
2023-04-07T08:50:35.796Z,7.68
2023-04-07T08:52:49.099Z,7.18
2023-04-07T08:54:58.957Z,7.30
2023-04-07T08:57:07.198Z,7.68
2023-04-07T08:59:18.849Z,7.25
2023-04-07T09:01:28.479Z,5.88
2023-04-07T09:03:37.555Z,6.97
2023-04-07T09:05:48.288Z,7.47
2023-04-07T09:07:59.346Z,6.32
2023-04-07T09:10:10.273Z,6.55
2023-04-07T09:12:19.603Z,6.40
2023-04-07T09:14:27.657Z,5.43
2023-04-07T09:16:35.758Z,6.63
2023-04-07T09:18:43.742Z,6.68
2023-04-07T09:21:02.434Z,5.78
2023-04-07T09:23:30.848Z,6.50
2023-04-07T09:25:38.746Z,6.35
2023-04-07T09:28:02.326Z,8.38
2023-04-07T09:30:18.323Z,5.72
2023-04-07T09:32:41.694Z,5.63
2023-04-07T09:34:49.664Z,5.05
2023-04-07T09:36:58.036Z,5.25
2023-04-07T09:39:13.876Z,5.72
2023-04-07T09:41:23.060Z,5.55
2023-04-07T09:43:31.126Z,6.80
2023-04-07T09:45:39.585Z,5.28
2023-04-07T09:47:48.148Z,5.55
2023-04-07T09:49:59.629Z,4.40
2023-04-07T09:52:08.027Z,5.22
2023-04-07T09:54:36.379Z,5.57
2023-04-07T09:56:44.421Z,5.50
2023-04-07T09:58:54.984Z,6.60
2023-04-07T10:01:03.643Z,5.82
2023-04-07T10:03:11.717Z,5.35
2023-04-07T10:05:21.343Z,5.68
2023-04-07T10:07:29.676Z,6.07
2023-04-07T10:09:40.230Z,5.63
2023-04-07T10:11:48.663Z,6.03
2023-04-07T10:13:57.426Z,6.45
2023-04-07T10:16:07.592Z,5.55
2023-04-07T10:18:18.612Z,4.80
2023-04-07T10:20:27.475Z,4.25
2023-04-07T10:22:36.805Z,5.93
2023-04-07T10:24:57.813Z,6.47
2023-04-07T10:27:11.868Z,5.72
2023-04-07T10:29:19.930Z,7.60
2023-04-07T10:31:28.196Z,7.47
2023-04-07T10:33:52.785Z,6.57
2023-04-07T10:36:08.640Z,7.93
2023-04-07T10:38:18.246Z,8.98
2023-04-07T10:40:35.788Z,7.65
2023-04-07T10:42:51.076Z,10.00
2023-04-07T10:45:01.018Z,7.75
2023-04-07T10:47:09.605Z,8.52
2023-04-07T10:49:19.063Z,9.00
2023-04-07T10:51:27.542Z,7.63
2023-04-07T10:53:35.601Z,6.90
2023-04-07T10:55:46.898Z,8.50
2023-04-07T10:58:19.453Z,8.00
2023-04-07T11:00:27.738Z,8.25
2023-04-07T11:02:36.995Z,6.88
2023-04-07T11:04:47.394Z,9.70
2023-04-07T11:06:55.832Z,6.95
2023-04-07T11:09:03.650Z,6.40
2023-04-07T11:11:16.694Z,5.80
2023-04-07T11:13:24.485Z,7.65
2023-04-07T11:15:32.498Z,6.47
2023-04-07T11:17:40.591Z,4.72
2023-04-07T11:19:56.101Z,5.50
2023-04-07T11:24:37.914Z,6.68
2023-04-07T11:26:50.563Z,5.68
2023-04-07T11:28:59.436Z,6.30
2023-04-07T11:31:07.844Z,7.25
2023-04-07T11:33:19.515Z,5.82
2023-04-07T11:35:28.389Z,6.15
2023-04-07T11:37:36.826Z,5.40
2023-04-07T11:39:46.441Z,6.22
2023-04-07T11:41:57.114Z,7.28
2023-04-07T11:44:09.670Z,7.97
2023-04-07T11:46:18.903Z,12.48
2023-04-07T11:48:30.296Z,5.80
2023-04-07T11:50:43.032Z,7.00
2023-04-07T11:52:51.963Z,5.70
2023-04-07T11:55:00.498Z,6.75
2023-04-07T11:57:13.020Z,6.43
2023-04-07T11:59:25.773Z,6.75
2023-04-07T12:01:43.765Z,6.85
2023-04-07T12:04:00.407Z,7.45
2023-04-07T12:06:09.261Z,5.43
2023-04-07T12:08:19.806Z,5.63
2023-04-07T12:10:28.802Z,5.88
2023-04-07T12:12:39.779Z,5.65
2023-04-07T12:14:47.995Z,5.43
2023-04-07T12:16:56.748Z,5.90
2023-04-07T12:19:04.762Z,5.03
2023-04-07T12:21:12.667Z,3.47
2023-04-07T12:23:20.565Z,2.83
2023-04-07T12:25:28.506Z,4.20
2023-04-07T12:27:43.237Z,2.28
2023-04-07T12:29:54.408Z,7.45
2023-04-07T12:32:02.331Z,6.70
2023-04-07T12:34:10.288Z,7.70
2023-04-07T12:36:18.703Z,7.30
2023-04-07T12:38:27.331Z,7.72
2023-04-07T12:40:36.158Z,9.32
2023-04-07T12:42:44.144Z,9.13
2023-04-07T12:44:54.689Z,7.70
2023-04-07T12:47:02.727Z,7.63
2023-04-07T12:49:10.634Z,8.98
2023-04-07T12:51:19.455Z,10.27
2023-04-07T12:53:27.327Z,8.85
2023-04-07T12:55:36.889Z,9.00
2023-04-07T12:57:44.830Z,7.07
2023-04-07T12:59:55.232Z,12.05
2023-04-07T13:02:03.680Z,7.10
2023-04-07T13:04:12.610Z,5.57
2023-04-07T13:06:20.765Z,5.25
2023-04-07T13:08:29.232Z,5.00
2023-04-07T13:10:37.062Z,5.30
2023-04-07T13:12:45.093Z,3.58
2023-04-07T13:15:00.263Z,4.93
2023-04-07T13:17:09.213Z,4.00
2023-04-07T13:19:17.338Z,4.43
2023-04-07T13:23:43.299Z,5.63
2023-04-07T13:25:51.851Z,6.05
2023-04-07T13:28:00.009Z,4.78
2023-04-07T13:30:11.808Z,5.10
2023-04-07T13:32:19.734Z,4.93
2023-04-07T13:34:27.840Z,5.32
2023-04-07T13:36:35.723Z,4.80
2023-04-07T13:38:44.323Z,4.43
2023-04-07T13:40:52.396Z,4.70
2023-04-07T13:43:01.212Z,5.00
2023-04-07T13:45:12.696Z,5.70
2023-04-07T13:47:22.914Z,4.75
2023-04-07T13:49:30.959Z,5.05
2023-04-07T13:51:38.980Z,4.88
2023-04-07T13:53:47.188Z,4.13
2023-04-07T13:55:55.110Z,4.93
2023-04-07T13:58:03.062Z,4.78
2023-04-07T14:00:15.516Z,6.80
2023-04-07T14:02:24.807Z,4.30
2023-04-07T14:04:32.897Z,6.35
2023-04-07T14:06:40.775Z,5.15
2023-04-07T14:08:48.811Z,5.47
2023-04-07T14:10:56.678Z,6.45
2023-04-07T14:13:04.590Z,4.95
2023-04-07T14:15:17.721Z,5.43
2023-04-07T14:17:26.266Z,4.60
2023-04-07T14:19:36.572Z,5.57
2023-04-07T14:21:44.432Z,9.73
2023-04-07T14:23:52.629Z,15.88
2023-04-07T14:26:00.876Z,18.83
2023-04-07T14:28:09.700Z,7.97
2023-04-07T14:30:20.176Z,4.88
2023-04-07T14:32:29.888Z,4.25
2023-04-07T14:34:37.924Z,4.47
2023-04-07T14:36:55.342Z,5.38
2023-04-07T14:39:04.148Z,4.00
2023-04-07T14:41:13.313Z,4.35
2023-04-07T14:43:21.303Z,4.00
2023-04-07T14:45:31.835Z,4.10
2023-04-07T14:47:39.801Z,5.07
2023-04-07T14:49:47.724Z,4.18
2023-04-07T14:51:55.562Z,5.88
2023-04-07T14:54:03.648Z,4.40
2023-04-07T14:56:11.682Z,4.53
2023-04-07T14:58:19.763Z,4.45
2023-04-07T15:00:28.988Z,5.07
2023-04-07T15:02:40.349Z,5.85
2023-04-07T15:04:48.506Z,6.30
2023-04-07T15:06:56.639Z,6.38
2023-04-07T15:09:04.550Z,5.95
2023-04-07T15:11:12.925Z,8.88
2023-04-07T15:13:20.966Z,8.73
2023-04-07T15:15:28.889Z,7.70
2023-04-07T15:17:44.418Z,7.78
2023-04-07T15:19:52.939Z,8.07
2023-04-07T15:22:00.903Z,6.70
2023-04-07T15:24:08.882Z,6.03
2023-04-07T15:26:16.773Z,6.30
2023-04-07T15:28:25.047Z,7.25
2023-04-07T15:30:35.290Z,6.35
2023-04-07T15:33:00.546Z,5.70
2023-04-07T15:35:12.942Z,5.53
2023-04-07T15:37:21.027Z,7.05
2023-04-07T15:39:29.126Z,6.53
2023-04-07T15:41:37.298Z,7.28
2023-04-07T15:43:45.263Z,6.70
2023-04-07T15:45:53.100Z,6.47
2023-04-07T15:48:03.705Z,6.40
2023-04-07T15:50:12.862Z,7.30
2023-04-07T15:52:20.856Z,7.75
2023-04-07T15:54:29.113Z,7.05
2023-04-07T15:56:37.054Z,8.15
2023-04-07T15:58:45.538Z,7.40
2023-04-07T16:00:53.593Z,7.60
2023-04-07T16:03:04.359Z,7.35
2023-04-07T16:05:12.882Z,8.05
2023-04-07T16:07:21.172Z,9.32
2023-04-07T16:09:29.083Z,10.05
2023-04-07T16:11:36.990Z,9.20
2023-04-07T16:13:44.929Z,8.80
2023-04-07T16:15:52.823Z,9.27
2023-04-07T16:18:17.978Z,8.77
2023-04-07T16:20:33.590Z,9.23
2023-04-07T16:22:41.623Z,9.20
2023-04-07T16:24:49.613Z,9.60
2023-04-07T16:26:57.466Z,10.07
2023-04-07T16:29:05.392Z,10.15
2023-04-07T16:31:13.331Z,9.85
2023-04-07T16:33:25.927Z,10.27
2023-04-07T16:35:34.172Z,18.98
2023-04-07T16:37:42.650Z,17.25
2023-04-07T16:39:50.821Z,16.80
2023-04-07T16:41:58.775Z,13.05
2023-04-07T16:44:06.684Z,14.77
2023-04-07T16:46:14.651Z,11.60
2023-04-07T16:48:25.115Z,12.00
2023-04-07T16:50:33.024Z,10.38
2023-04-07T16:52:40.955Z,11.13
2023-04-07T16:54:49.439Z,10.68
2023-04-07T16:56:57.326Z,10.18
2023-04-07T16:59:05.219Z,10.35
2023-04-07T17:01:13.201Z,11.15
2023-04-07T17:03:21.193Z,12.48
2023-04-07T17:05:32.103Z,12.30
2023-04-07T17:07:43.035Z,10.88
2023-04-07T17:09:51.010Z,12.05
2023-04-07T17:12:02.050Z,11.70
2023-04-07T17:14:28.189Z,10.07
2023-04-07T17:16:39.225Z,10.60
2023-04-07T17:18:48.965Z,10.88
2023-04-07T17:21:04.100Z,10.90
2023-04-07T17:23:17.987Z,9.48
2023-04-07T17:25:28.282Z,10.50
2023-04-07T17:27:38.193Z,9.38
2023-04-07T17:29:46.154Z,9.52
2023-04-07T17:31:54.329Z,9.00
2023-04-07T17:34:02.229Z,8.77
2023-04-07T17:36:14.119Z,8.77
2023-04-07T17:38:21.966Z,9.65
2023-04-07T17:40:29.822Z,8.85
2023-04-07T17:42:37.842Z,8.45
2023-04-07T17:44:45.805Z,8.23
2023-04-07T17:46:54.184Z,9.05
2023-04-07T17:49:02.391Z,8.02
2023-04-07T17:51:10.287Z,7.55
2023-04-07T17:53:22.530Z,7.10
2023-04-07T17:55:31.137Z,8.07
2023-04-07T17:57:39.209Z,8.35
2023-04-07T17:59:47.334Z,8.27
2023-04-07T18:01:55.312Z,8.82
2023-04-07T18:04:05.128Z,9.00
2023-04-07T18:06:18.576Z,8.55
2023-04-07T18:08:30.069Z,9.20
2023-04-07T18:10:37.958Z,10.02
2023-04-07T18:12:45.815Z,9.38
2023-04-07T18:14:53.685Z,10.13
2023-04-07T18:17:01.522Z,8.63
2023-04-07T18:19:09.309Z,8.88
2023-04-07T18:21:17.221Z,8.93
2023-04-07T18:23:24.992Z,10.75
2023-04-07T18:25:35.942Z,7.38
2023-04-07T18:27:43.761Z,8.48
2023-04-07T18:29:51.629Z,8.20
2023-04-07T18:31:59.699Z,8.45
2023-04-07T18:34:07.575Z,7.40
2023-04-07T18:36:15.442Z,7.57
2023-04-07T18:38:23.325Z,8.35
2023-04-07T18:40:33.526Z,6.80
2023-04-07T18:42:44.075Z,7.18
2023-04-07T18:44:51.983Z,7.53
2023-04-07T18:47:00.112Z,7.30
2023-04-07T18:49:08.281Z,7.78
2023-04-07T18:51:16.424Z,6.60
2023-04-07T18:53:25.446Z,6.10
2023-04-07T18:55:33.267Z,7.10
2023-04-07T18:57:43.719Z,5.50
2023-04-07T18:59:53.043Z,5.38
2023-04-07T19:02:01.014Z,5.72
2023-04-07T19:04:09.133Z,5.78
2023-04-07T19:06:17.609Z,7.18
2023-04-07T19:08:25.587Z,5.57
2023-04-07T19:10:33.485Z,5.65
2023-04-07T19:12:43.966Z,5.20
2023-04-07T19:14:53.302Z,5.65
2023-04-07T19:17:01.611Z,4.82
2023-04-07T19:19:11.510Z,4.13
2023-04-07T19:21:19.811Z,5.57
2023-04-07T19:23:27.715Z,3.92
2023-04-07T19:25:35.615Z,4.65
2023-04-07T19:27:46.530Z,6.18
2023-04-07T19:29:54.488Z,4.20
2023-04-07T19:32:02.466Z,3.85
2023-04-07T19:34:10.523Z,4.90
2023-04-07T19:36:18.607Z,4.72
2023-04-07T19:38:26.483Z,3.80
2023-04-07T19:40:34.458Z,3.90
2023-04-07T19:42:42.371Z,4.75
2023-04-07T19:44:55.066Z,4.07
2023-04-07T19:47:04.081Z,4.20
2023-04-07T19:49:12.074Z,4.78
2023-04-07T19:51:20.082Z,4.80
2023-04-07T19:53:29.233Z,4.40
2023-04-07T19:55:37.339Z,5.18
2023-04-07T19:57:45.198Z,5.03
2023-04-07T19:59:55.721Z,6.20
2023-04-07T20:02:03.668Z,4.90
2023-04-07T20:04:11.635Z,5.32
2023-04-07T20:06:20.961Z,5.97
2023-04-07T20:08:28.826Z,5.82
2023-04-07T20:10:36.656Z,5.40
2023-04-07T20:12:44.512Z,5.80
2023-04-07T20:14:52.326Z,5.80
2023-04-07T20:19:39.097Z,6.47
2023-04-07T20:21:46.869Z,6.80
2023-04-07T20:23:54.716Z,5.60
2023-04-07T20:26:02.773Z,6.85
2023-04-07T20:28:13.611Z,6.78
2023-04-07T20:30:24.175Z,6.38
2023-04-07T20:32:36.868Z,5.80
2023-04-07T20:34:47.199Z,6.15
2023-04-07T20:36:55.205Z,6.88
2023-04-07T20:39:03.207Z,6.90
2023-04-07T20:41:14.060Z,6.32
2023-04-07T20:43:23.977Z,6.10
2023-04-07T20:45:31.982Z,6.55
2023-04-07T20:47:42.458Z,5.95
2023-04-07T20:49:50.997Z,6.55
2023-04-07T20:51:59.112Z,6.40
2023-04-07T20:54:08.105Z,6.10
2023-04-07T20:56:16.560Z,6.72
2023-04-07T20:58:24.735Z,6.22
2023-04-07T21:00:32.696Z,6.50
2023-04-07T21:02:43.329Z,6.72
2023-04-07T21:04:51.325Z,6.65
2023-04-07T21:06:59.190Z,7.47
2023-04-07T21:09:08.854Z,8.70
2023-04-07T21:11:16.705Z,9.73
2023-04-07T21:13:26.446Z,7.90
2023-04-07T21:15:35.429Z,8.70
2023-04-07T21:17:46.199Z,8.57
2023-04-07T21:19:54.087Z,8.77
2023-04-07T21:22:02.507Z,7.90
2023-04-07T21:24:10.390Z,8.25
2023-04-07T21:26:26.661Z,8.77
2023-04-07T21:28:40.247Z,8.13
2023-04-07T21:30:48.165Z,8.65
2023-04-07T21:32:58.662Z,9.50
2023-04-07T21:35:06.982Z,9.65
2023-04-07T21:37:14.781Z,9.35
2023-04-07T21:39:22.726Z,9.32
2023-04-07T21:41:30.611Z,8.80
2023-04-07T21:43:38.637Z,9.48
2023-04-07T21:45:47.293Z,9.80
2023-04-07T21:47:55.213Z,9.38
2023-04-07T21:50:05.862Z,9.25
2023-04-07T21:52:13.803Z,9.23
2023-04-07T21:54:21.833Z,9.55
2023-04-07T21:56:29.690Z,8.73
2023-04-07T21:58:37.561Z,9.80
2023-04-07T22:00:45.477Z,11.35
2023-04-07T22:02:53.453Z,10.52
2023-04-07T22:05:01.503Z,9.27
2023-04-07T22:07:12.032Z,10.45
2023-04-07T22:09:19.918Z,9.57
2023-04-07T22:11:27.852Z,9.45
2023-04-07T22:13:35.723Z,8.73
2023-04-07T22:15:43.587Z,8.95
2023-04-07T22:17:51.854Z,9.77
2023-04-07T22:19:59.732Z,9.40
2023-04-07T22:22:08.366Z,9.93
2023-04-07T22:24:19.004Z,9.70
2023-04-07T22:26:27.019Z,8.95
2023-04-07T22:28:35.060Z,8.88
2023-04-07T22:30:42.893Z,8.88
2023-04-07T22:32:50.834Z,8.98
2023-04-07T22:34:58.742Z,9.13
2023-04-07T22:37:06.589Z,8.93
2023-04-07T22:39:14.539Z,9.00
2023-04-07T22:41:24.999Z,8.65
2023-04-07T22:43:33.057Z,8.73
2023-04-07T22:45:40.899Z,9.30
2023-04-07T22:47:48.784Z,8.70
2023-04-07T22:49:56.846Z,8.80
2023-04-07T22:52:05.050Z,8.65
2023-04-07T22:54:12.911Z,8.60
2023-04-07T22:56:20.734Z,9.73
2023-04-07T22:58:31.230Z,8.82
2023-04-07T23:00:39.060Z,9.60
2023-04-07T23:02:47.885Z,10.35
2023-04-07T23:04:56.084Z,9.00
2023-04-07T23:07:03.980Z,8.30
2023-04-07T23:09:12.119Z,8.57
2023-04-07T23:11:21.499Z,9.10
2023-04-07T23:13:33.425Z,12.20
2023-04-07T23:15:49.192Z,8.90
2023-04-07T23:17:59.973Z,8.57
2023-04-07T23:20:09.330Z,8.50
2023-04-07T23:22:17.360Z,10.48
2023-04-07T23:24:25.270Z,9.95
2023-04-07T23:26:33.170Z,10.77
2023-04-07T23:28:43.677Z,9.40
2023-04-07T23:30:51.554Z,10.43
2023-04-07T23:32:59.452Z,11.57
2023-04-07T23:35:07.967Z,11.50
2023-04-07T23:37:15.808Z,11.82
2023-04-07T23:39:23.732Z,13.38
2023-04-07T23:41:31.998Z,13.82
2023-04-07T23:43:39.873Z,12.07
2023-04-07T23:45:50.347Z,13.82
2023-04-07T23:47:58.500Z,13.30
2023-04-07T23:50:06.629Z,14.02
2023-04-07T23:52:15.395Z,14.60
2023-04-07T23:54:23.344Z,15.07
2023-04-07T23:56:31.289Z,16.30
2023-04-07T23:58:39.155Z,14.38
